Syria, Indiana
Current Conditions -  °F | °C
As of 9:30 AM on Thursday 23 Oct 2014 (Local Time) from KBMG Reporting Station
Haze Haze  
Wind Chill: 39°   Ceiling: Unl
Heat Index: 39°   Visibility: 1.2mi
Dew Point: 39°   Wind: 0mph
Humidity: 100%   Direction: NA
Pressure: 30.25"   Gusts: NA
Location:  38.6433°N, 86.4481°W
Report Text: KBMG 231330Z 00000KT 1 1/4SM BR CLR 04/04 A3025 RMK AO2 T00390039
Loading
Personal Weather Stations






























Interactive Weather Map New forecast layout! Learn more

10-Day Weather Forecast

Advertisements
Track Severe Weather on mobile